»·PEaware :: SKW4760 KSJC-KSBA

SKW4760 :: KSJC-KSBA

FLIGHT INFORMATION

Flight Status: Arrived
Operator:
SkyWest Airlines
More flights by this operator :: More flights under this callsign
Pilot: Skye D. (10623)
Aircraft: EMBRAER EMB-170/175
(E170)
More flights by this aircraft type
Origin: KSJC Mineta San Jose Intl
United States
Destination: KSBA Santa Barbara Mun
United States
More flights between these airports :: More routes between these airports
Route: +TECKY3 EBAYE AVE GVO
File this flight plan on PilotEdge
Remarks:
Altitude:
(Current/Filed)
35,000ft
Speed:
(Current/Filed)
395kts
Departed: 12-Feb-18 01:55 PM
Arrived: 12-Feb-18 02:53 PM
Distance/Time
Traveled:
203nm/0:57
Distance/Time
To Go:
Arrived

Flight Plot

Page will automatically refresh every two minutes.

Flight plan parsing failed; only flown route is shown


Map Options




Map Legend


Flown Route
Filed Route
Departure Airport
Arrival Airport
Navaid (VOR, NDB)
Fix

Horizontal Profiles

Position Reports

Time Latitude Longitude Heading Altitude Ground
Speed
12-Feb-18 13:38 37.370603 -121.931873 50 68ft 0kts
12-Feb-18 13:39 37.370603 -121.931873 50 68ft 0kts
12-Feb-18 13:40 37.370603 -121.931873 50 68ft 0kts
12-Feb-18 13:41 37.370603 -121.931873 50 68ft 0kts
12-Feb-18 13:42 37.370603 -121.931873 50 68ft 0kts
12-Feb-18 13:43 37.370603 -121.931873 50 68ft 0kts
12-Feb-18 13:44 37.370603 -121.931873 50 68ft 0kts
12-Feb-18 13:45 37.370603 -121.931873 50 68ft 0kts
12-Feb-18 13:46 37.370603 -121.931873 50 68ft 0kts
12-Feb-18 13:47 37.370603 -121.931873 50 68ft 0kts
12-Feb-18 13:48 37.370603 -121.931873 50 68ft 0kts
12-Feb-18 13:49 37.370603 -121.931873 50 68ft 0kts
12-Feb-18 13:50 37.370560 -121.931938 50 68ft 2kts
12-Feb-18 13:51 37.370392 -121.932452 113 68ft 2kts
12-Feb-18 13:52 37.370469 -121.932587 138 68ft 0kts
12-Feb-18 13:53 37.370469 -121.932587 138 68ft 0kts
12-Feb-18 13:54 37.370469 -121.932587 138 68ft 0kts
12-Feb-18 13:55 37.368934 -121.930861 141 68ft 23kts
12-Feb-18 13:56 37.365544 -121.927199 137 68ft 14kts
12-Feb-18 13:57 37.361987 -121.923265 138 68ft 34kts
12-Feb-18 13:58 37.358006 -121.918885 139 68ft 22kts
12-Feb-18 13:59 37.354018 -121.914503 138 68ft 26kts
12-Feb-18 14:00 37.353002 -121.914544 226 68ft 3kts
12-Feb-18 14:01 37.353397 -121.916514 318 68ft 26kts
12-Feb-18 14:02 37.367766 -121.932172 320 712ft 142kts
12-Feb-18 14:03 37.393819 -121.960098 319 2593ft 197kts
12-Feb-18 14:04 37.431601 -121.976388 23 4788ft 241kts
12-Feb-18 14:05 37.443114 -121.917147 129 5019ft 258kts
12-Feb-18 14:06 37.405198 -121.872794 137 5766ft 266kts
12-Feb-18 14:07 37.362279 -121.825943 135 8594ft 276kts
12-Feb-18 14:08 37.318201 -121.776073 134 10414ft 319kts
12-Feb-18 14:09 37.263522 -121.713812 135 12384ft 353kts
12-Feb-18 14:10 37.211691 -121.655284 135 14208ft 375kts
12-Feb-18 14:11 37.158936 -121.595775 135 16034ft 389kts
12-Feb-18 14:12 37.096555 -121.525477 135 17936ft 403kts
12-Feb-18 14:13 37.037882 -121.460448 137 19519ft 416kts
12-Feb-18 14:14 36.977749 -121.396489 137 20967ft 428kts
12-Feb-18 14:15 36.919607 -121.335035 137 22207ft 438kts
12-Feb-18 14:16 36.863250 -121.274142 137 23285ft 446kts
12-Feb-18 14:17 36.796097 -121.202787 139 24620ft 451kts
12-Feb-18 14:18 36.727772 -121.130825 139 25592ft 461kts
12-Feb-18 14:19 36.651427 -121.050519 140 26991ft 461kts
12-Feb-18 14:20 36.572971 -120.968985 141 28291ft 460kts
12-Feb-18 14:21 36.502437 -120.897402 141 29354ft 460kts
12-Feb-18 14:22 36.427350 -120.821611 141 30426ft 459kts
12-Feb-18 14:23 36.350767 -120.744385 141 30969ft 481kts
12-Feb-18 14:24 36.271158 -120.664081 142 30958ft 477kts
12-Feb-18 14:24 36.202664 -120.594962 143 30918ft 483kts
12-Feb-18 14:26 36.100910 -120.492886 143 30917ft 484kts
12-Feb-18 14:27 36.013515 -120.405549 143 30741ft 495kts
12-Feb-18 14:28 35.939070 -120.331335 144 29942ft 509kts
12-Feb-18 14:29 35.852028 -120.241398 140 28905ft 524kts
12-Feb-18 14:30 35.775768 -120.145766 135 27973ft 509kts
12-Feb-18 14:31 35.684012 -120.024686 143 25142ft 493kts
12-Feb-18 14:32 35.610904 -119.982661 179 23948ft 449kts
12-Feb-18 14:33 35.513237 -119.984504 195 23910ft 433kts
12-Feb-18 14:34 35.418932 -119.998537 195 23922ft 397kts
12-Feb-18 14:35 35.331614 -120.009711 194 23927ft 401kts
12-Feb-18 14:36 35.248790 -120.018555 193 23927ft 402kts
12-Feb-18 14:37 35.168273 -120.026572 196 23936ft 395kts
12-Feb-18 14:38 35.083090 -120.035171 196 23696ft 393kts
12-Feb-18 14:39 34.993903 -120.043953 194 20092ft 380kts
12-Feb-18 14:40 34.914166 -120.051947 192 16399ft 361kts
12-Feb-18 14:41 34.837183 -120.059683 191 14337ft 349kts
12-Feb-18 14:42 34.757188 -120.067620 190 13120ft 324kts
12-Feb-18 14:43 34.689073 -120.074211 192 11225ft 290kts
12-Feb-18 14:44 34.622257 -120.081305 191 9091ft 283kts
12-Feb-18 14:45 34.559498 -120.086973 179 8764ft 286kts
12-Feb-18 14:46 34.514102 -120.035824 122 7909ft 298kts
12-Feb-18 14:47 34.479458 -119.966823 122 6690ft 292kts
12-Feb-18 14:48 34.449901 -119.908019 122 5737ft 286kts
12-Feb-18 14:49 34.422801 -119.855890 122 4682ft 280kts
12-Feb-18 14:50 34.391482 -119.796874 122 4085ft 232kts
12-Feb-18 14:51 34.365246 -119.747793 122 4006ft 215kts
12-Feb-18 14:52 34.340471 -119.701619 121 4003ft 210kts
12-Feb-18 14:53 34.354208 -119.664702 346 4014ft 173kts
12-Feb-18 14:54 34.377537 -119.693405 304 3618ft 164kts
12-Feb-18 14:55 34.397612 -119.723057 326 2837ft 145kts
12-Feb-18 14:56 34.423517 -119.742141 320 1963ft 138kts
12-Feb-18 14:57 34.428701 -119.774099 266 1105ft 139kts
12-Feb-18 14:58 34.428163 -119.804411 277 561ft 125kts
12-Feb-18 14:59 34.427881 -119.832746 274 60ft 110kts
12-Feb-18 15:00 34.427459 -119.845874 236 19ft 24kts
12-Feb-18 15:01 34.426627 -119.846142 136 19ft 0kts
12-Feb-18 15:02 34.426597 -119.843583 86 19ft 16kts
12-Feb-18 15:03 34.426710 -119.838789 96 19ft 16kts
12-Feb-18 15:04 34.425684 -119.837290 98 19ft 0kts
12-Feb-18 15:05 34.425682 -119.837280 99 19ft 0kts
12-Feb-18 15:06 34.425682 -119.837280 99 19ft 0kts

Navigation Log

Ident Type
Flight plan parsing failed, navigation log unavailable